createdAt,value
2022-08-05T06:37:57.543Z,21.70
2022-08-05T06:43:57.807Z,22.10
2022-08-05T06:48:55.953Z,22.60
2022-08-05T06:54:04.093Z,22.80
2022-08-05T06:59:09.346Z,23.10
2022-08-05T07:04:14.051Z,23.30
2022-08-05T07:09:17.162Z,23.60
2022-08-05T07:14:41.363Z,23.50
2022-08-05T07:20:31.012Z,24.10
2022-08-05T07:25:54.969Z,23.70
2022-08-05T07:30:34.471Z,23.80
2022-08-05T07:36:05.385Z,23.70
2022-08-05T07:41:16.501Z,23.80
2022-08-05T07:46:27.101Z,24.10
2022-08-05T07:51:37.079Z,24.30
2022-08-05T07:57:02.007Z,24.30
2022-08-05T08:02:17.098Z,24.60
2022-08-05T08:07:22.704Z,24.70
2022-08-05T08:12:35.639Z,24.90
2022-08-05T08:17:52.384Z,24.70
2022-08-05T08:22:59.231Z,25.00
2022-08-05T08:28:05.913Z,25.30
2022-08-05T08:33:20.700Z,25.20
2022-08-05T08:38:32.270Z,25.30
2022-08-05T08:45:23.124Z,25.60
2022-08-05T08:50:03.887Z,25.80
2022-08-05T08:54:28.388Z,25.90
2022-08-05T08:59:33.676Z,26.20
2022-08-05T09:04:57.819Z,26.50
2022-08-05T09:10:03.822Z,26.70
2022-08-05T09:15:08.570Z,26.90
2022-08-05T09:20:12.790Z,27.10
2022-08-05T09:26:01.205Z,27.00
2022-08-05T09:31:44.251Z,27.00
2022-08-05T09:36:55.403Z,27.30
2022-08-05T09:42:04.655Z,27.50
2022-08-05T09:47:16.015Z,27.90
2022-08-05T09:52:26.286Z,28.10
2022-08-05T09:57:45.505Z,28.20
2022-08-05T10:02:58.247Z,28.60
2022-08-05T10:08:10.898Z,28.70
2022-08-05T10:13:47.457Z,29.00
2022-08-05T10:18:51.740Z,29.20
2022-08-05T10:24:00.444Z,29.20
2022-08-05T10:29:04.162Z,29.10
2022-08-05T10:34:10.870Z,29.10
2022-08-05T10:39:24.958Z,29.30
2022-08-05T10:44:50.959Z,29.80
2022-08-05T10:50:20.631Z,30.00
2022-08-05T10:56:05.236Z,30.20
2022-08-05T11:01:28.478Z,30.20
2022-08-05T11:07:01.844Z,30.40
2022-08-05T11:12:04.919Z,30.40
2022-08-05T11:17:59.518Z,30.50
2022-08-05T11:23:21.484Z,30.30
2022-08-05T11:28:27.999Z,30.30
2022-08-05T11:33:47.899Z,30.20
2022-08-05T11:38:54.548Z,30.40
2022-08-05T11:44:05.673Z,30.60
2022-08-05T11:49:13.680Z,30.80
2022-08-05T11:54:33.355Z,31.10
2022-08-05T11:59:41.290Z,31.40
2022-08-05T12:04:59.220Z,31.30
2022-08-05T12:10:11.476Z,31.40
2022-08-05T12:15:33.255Z,31.30
2022-08-05T12:20:41.512Z,31.20
2022-08-05T12:25:56.639Z,30.80
2022-08-05T12:31:02.014Z,30.70
2022-08-05T12:36:08.322Z,31.20
2022-08-05T12:41:14.202Z,31.80
2022-08-05T12:46:28.132Z,31.90
2022-08-05T12:52:11.175Z,31.90
2022-08-05T12:57:12.953Z,31.80
2022-08-05T13:02:42.209Z,31.40
2022-08-05T13:07:59.832Z,31.50
2022-08-05T13:13:08.975Z,31.50
2022-08-05T13:18:11.875Z,31.60
2022-08-05T13:23:23.210Z,31.30
2022-08-05T13:28:26.020Z,31.20
2022-08-05T13:34:21.230Z,31.10
2022-08-05T13:38:51.791Z,31.20
2022-08-05T13:43:55.459Z,31.30
2022-08-05T13:49:00.923Z,31.80
2022-08-05T13:54:12.925Z,32.20
2022-08-05T13:59:20.381Z,32.40
2022-08-05T14:04:42.396Z,32.50
2022-08-05T14:09:55.958Z,32.60
2022-08-05T14:14:58.828Z,31.90
2022-08-05T14:20:04.647Z,32.00
2022-08-05T14:25:21.666Z,32.00
2022-08-05T14:30:25.558Z,32.30
2022-08-05T14:35:37.201Z,32.30
2022-08-05T14:40:55.283Z,32.30
2022-08-05T14:45:59.382Z,32.30
2022-08-05T14:51:02.139Z,32.10
2022-08-05T14:56:06.240Z,32.10
2022-08-05T15:01:16.265Z,31.90
2022-08-05T15:06:20.370Z,31.90
2022-08-05T15:11:52.845Z,31.80
2022-08-05T15:16:55.926Z,32.00
2022-08-05T15:22:01.405Z,31.90
2022-08-05T15:27:04.419Z,32.10
2022-08-05T15:32:12.013Z,31.80
2022-08-05T15:37:19.374Z,30.90
2022-08-05T15:42:53.575Z,31.00
2022-08-05T15:47:59.720Z,31.10
2022-08-05T15:53:05.570Z,31.50
2022-08-05T15:58:09.355Z,31.40
2022-08-05T16:03:19.367Z,31.20
2022-08-05T16:08:22.444Z,30.80
2022-08-05T16:13:34.389Z,30.70
2022-08-05T16:18:51.790Z,30.20
2022-08-05T16:23:58.070Z,29.90
2022-08-05T16:29:04.304Z,29.80
2022-08-05T16:34:11.173Z,29.90
2022-08-05T16:39:14.358Z,29.90
2022-08-05T16:44:18.465Z,30.00
2022-08-05T16:49:23.899Z,29.70
2022-08-05T16:54:32.781Z,29.90
2022-08-05T16:59:35.771Z,28.40
2022-08-05T17:04:58.689Z,27.60
2022-08-05T17:10:01.454Z,26.90
2022-08-05T17:15:06.149Z,26.30
2022-08-05T17:20:14.585Z,25.90
2022-08-05T17:25:22.271Z,25.40
2022-08-05T17:30:42.602Z,24.30
2022-08-05T17:36:08.721Z,23.40
2022-08-05T17:42:16.854Z,22.80
2022-08-05T17:46:39.332Z,22.40
2022-08-05T17:51:42.839Z,22.00
2022-08-05T17:56:49.200Z,21.70
2022-08-05T18:01:54.179Z,21.30
2022-08-05T18:07:00.375Z,21.20
2022-08-05T18:12:04.951Z,21.00
2022-08-05T18:17:58.613Z,20.80
2022-08-05T18:22:46.013Z,20.40
2022-08-05T18:27:53.923Z,19.90
2022-08-05T18:32:59.936Z,20.10
2022-08-05T18:38:03.422Z,19.80
2022-08-05T18:43:09.093Z,19.70
2022-08-05T18:48:31.233Z,19.80
2022-08-05T18:53:42.872Z,19.60
2022-08-05T18:58:48.443Z,19.60
2022-08-05T19:03:56.613Z,19.60
2022-08-05T19:09:01.453Z,19.60
2022-08-05T19:14:15.243Z,19.40
2022-08-05T19:19:27.077Z,19.50
2022-08-05T19:24:34.678Z,19.40
2022-08-05T19:29:38.830Z,19.20
2022-08-05T19:34:41.914Z,19.10
2022-08-05T19:39:58.882Z,19.20
2022-08-05T19:45:01.644Z,19.10
2022-08-05T19:50:07.543Z,19.00
2022-08-05T19:56:15.367Z,19.10
2022-08-05T20:00:35.958Z,18.90
2022-08-05T20:05:49.947Z,18.70
2022-08-05T20:10:54.132Z,18.50
2022-08-05T20:15:57.687Z,18.70
2022-08-05T20:21:02.416Z,18.50
2022-08-05T20:26:08.139Z,18.60
2022-08-05T20:31:21.956Z,18.40
2022-08-05T20:36:31.225Z,18.50
2022-08-05T20:41:44.238Z,18.30
2022-08-05T20:46:48.341Z,18.20
2022-08-05T20:51:53.331Z,18.20
2022-08-05T20:56:58.047Z,18.20
2022-08-05T21:02:00.996Z,18.20
2022-08-05T21:07:04.268Z,18.10
2022-08-05T21:12:10.204Z,18.20
2022-08-05T21:17:14.773Z,17.90
2022-08-05T21:22:21.965Z,17.90
2022-08-05T21:27:27.389Z,18.00
2022-08-05T21:32:30.758Z,17.90
2022-08-05T21:37:35.073Z,17.80
2022-08-05T21:42:45.721Z,17.90
2022-08-05T21:47:57.111Z,17.60
2022-08-05T21:53:08.465Z,17.70
2022-08-05T21:58:20.314Z,17.90
2022-08-05T22:03:52.561Z,17.90
2022-08-05T22:08:56.464Z,17.40
2022-08-05T22:14:19.653Z,17.40
2022-08-05T22:20:03.576Z,17.30
2022-08-05T22:25:03.932Z,16.90
2022-08-05T22:30:16.116Z,16.90
2022-08-05T22:35:19.992Z,17.10
2022-08-05T22:40:22.941Z,17.10
